sensor_id;sensor_type;location;lat;lon;timestamp;P1;durP1;ratioP1;P2;durP2;ratioP2
65715;SDS011;63484;52.054;8.518;2022-11-02T00:00:47;4.72;;;0.98;;
65715;SDS011;63484;52.054;8.518;2022-11-02T00:05:48;10.15;;;1.20;;
65715;SDS011;63484;52.054;8.518;2022-11-02T00:10:48;8.68;;;1.30;;
65715;SDS011;63484;52.054;8.518;2022-11-02T00:15:53;10.35;;;1.30;;
65715;SDS011;63484;52.054;8.518;2022-11-02T00:20:54;6.65;;;1.02;;
65715;SDS011;63484;52.054;8.518;2022-11-02T00:25:54;9.02;;;1.50;;
65715;SDS011;63484;52.054;8.518;2022-11-02T00:30:56;10.57;;;1.42;;
65715;SDS011;63484;52.054;8.518;2022-11-02T00:35:57;9.18;;;1.30;;
65715;SDS011;63484;52.054;8.518;2022-11-02T00:40:58;11.57;;;1.83;;
65715;SDS011;63484;52.054;8.518;2022-11-02T00:45:58;6.57;;;1.55;;
65715;SDS011;63484;52.054;8.518;2022-11-02T00:50:59;9.20;;;1.40;;
65715;SDS011;63484;52.054;8.518;2022-11-02T00:56:02;18.97;;;1.60;;
65715;SDS011;63484;52.054;8.518;2022-11-02T01:01:07;8.07;;;1.10;;
65715;SDS011;63484;52.054;8.518;2022-11-02T01:06:09;9.35;;;1.15;;
65715;SDS011;63484;52.054;8.518;2022-11-02T01:11:15;11.98;;;1.70;;
65715;SDS011;63484;52.054;8.518;2022-11-02T01:16:18;8.77;;;1.45;;
65715;SDS011;63484;52.054;8.518;2022-11-02T01:21:19;8.80;;;1.58;;
65715;SDS011;63484;52.054;8.518;2022-11-02T01:26:20;11.68;;;1.50;;
65715;SDS011;63484;52.054;8.518;2022-11-02T01:31:20;10.80;;;1.50;;
65715;SDS011;63484;52.054;8.518;2022-11-02T01:36:21;9.82;;;1.40;;
65715;SDS011;63484;52.054;8.518;2022-11-02T01:41:22;11.20;;;1.52;;
65715;SDS011;63484;52.054;8.518;2022-11-02T01:46:23;7.55;;;1.30;;
65715;SDS011;63484;52.054;8.518;2022-11-02T01:51:37;14.32;;;1.98;;
65715;SDS011;63484;52.054;8.518;2022-11-02T01:56:45;10.23;;;1.25;;
65715;SDS011;63484;52.054;8.518;2022-11-02T02:01:48;6.50;;;0.98;;
65715;SDS011;63484;52.054;8.518;2022-11-02T02:06:48;10.23;;;1.10;;
65715;SDS011;63484;52.054;8.518;2022-11-02T02:11:51;9.03;;;1.30;;
65715;SDS011;63484;52.054;8.518;2022-11-02T02:22:41;8.18;;;1.15;;
65715;SDS011;63484;52.054;8.518;2022-11-02T02:28:21;11.80;;;1.35;;
65715;SDS011;63484;52.054;8.518;2022-11-02T02:33:40;7.18;;;1.27;;
65715;SDS011;63484;52.054;8.518;2022-11-02T02:38:48;13.50;;;1.40;;
65715;SDS011;63484;52.054;8.518;2022-11-02T02:43:56;12.63;;;1.60;;
65715;SDS011;63484;52.054;8.518;2022-11-02T02:48:59;9.03;;;1.60;;
65715;SDS011;63484;52.054;8.518;2022-11-02T02:54:05;6.75;;;1.67;;
65715;SDS011;63484;52.054;8.518;2022-11-02T02:59:15;12.52;;;1.55;;
65715;SDS011;63484;52.054;8.518;2022-11-02T03:04:22;10.18;;;1.23;;
65715;SDS011;63484;52.054;8.518;2022-11-02T03:09:33;5.40;;;1.05;;
65715;SDS011;63484;52.054;8.518;2022-11-02T03:25:20;8.68;;;1.42;;
65715;SDS011;63484;52.054;8.518;2022-11-02T03:30:36;10.35;;;1.40;;
65715;SDS011;63484;52.054;8.518;2022-11-02T03:35:51;7.45;;;1.27;;
65715;SDS011;63484;52.054;8.518;2022-11-02T03:40:56;10.80;;;1.55;;
65715;SDS011;63484;52.054;8.518;2022-11-02T03:45:59;12.45;;;1.67;;
65715;SDS011;63484;52.054;8.518;2022-11-02T03:51:03;13.50;;;1.42;;
65715;SDS011;63484;52.054;8.518;2022-11-02T03:56:08;7.35;;;1.33;;
65715;SDS011;63484;52.054;8.518;2022-11-02T04:01:13;5.65;;;1.38;;
65715;SDS011;63484;52.054;8.518;2022-11-02T04:06:16;7.97;;;1.20;;
65715;SDS011;63484;52.054;8.518;2022-11-02T04:11:17;12.38;;;1.60;;
65715;SDS011;63484;52.054;8.518;2022-11-02T04:16:42;8.32;;;1.38;;
65715;SDS011;63484;52.054;8.518;2022-11-02T04:21:57;12.85;;;1.83;;
65715;SDS011;63484;52.054;8.518;2022-11-02T04:27:20;6.47;;;1.08;;
65715;SDS011;63484;52.054;8.518;2022-11-02T04:32:21;12.38;;;1.58;;
65715;SDS011;63484;52.054;8.518;2022-11-02T04:37:44;11.07;;;1.60;;
65715;SDS011;63484;52.054;8.518;2022-11-02T04:43:08;7.72;;;1.08;;
65715;SDS011;63484;52.054;8.518;2022-11-02T04:48:12;11.82;;;1.55;;
65715;SDS011;63484;52.054;8.518;2022-11-02T04:53:12;15.27;;;1.60;;
65715;SDS011;63484;52.054;8.518;2022-11-02T04:58:13;5.90;;;1.17;;
65715;SDS011;63484;52.054;8.518;2022-11-02T05:03:14;7.97;;;1.27;;
65715;SDS011;63484;52.054;8.518;2022-11-02T05:08:17;9.68;;;1.80;;
65715;SDS011;63484;52.054;8.518;2022-11-02T05:13:17;13.15;;;1.60;;
65715;SDS011;63484;52.054;8.518;2022-11-02T05:18:18;5.63;;;1.30;;
65715;SDS011;63484;52.054;8.518;2022-11-02T05:23:19;7.20;;;1.30;;
65715;SDS011;63484;52.054;8.518;2022-11-02T05:28:20;14.15;;;1.52;;
65715;SDS011;63484;52.054;8.518;2022-11-02T05:33:21;10.77;;;1.70;;
65715;SDS011;63484;52.054;8.518;2022-11-02T05:38:22;8.45;;;1.45;;
65715;SDS011;63484;52.054;8.518;2022-11-02T05:43:24;8.70;;;1.27;;
65715;SDS011;63484;52.054;8.518;2022-11-02T05:48:25;7.88;;;1.27;;
65715;SDS011;63484;52.054;8.518;2022-11-02T05:53:27;10.70;;;1.45;;
65715;SDS011;63484;52.054;8.518;2022-11-02T05:58:32;7.03;;;1.50;;
65715;SDS011;63484;52.054;8.518;2022-11-02T06:03:33;7.63;;;1.75;;
65715;SDS011;63484;52.054;8.518;2022-11-02T06:08:35;6.10;;;1.55;;
65715;SDS011;63484;52.054;8.518;2022-11-02T06:13:37;8.38;;;1.40;;
65715;SDS011;63484;52.054;8.518;2022-11-02T06:18:38;9.55;;;1.23;;
65715;SDS011;63484;52.054;8.518;2022-11-02T06:23:39;13.55;;;1.73;;
65715;SDS011;63484;52.054;8.518;2022-11-02T06:28:39;9.30;;;2.13;;
65715;SDS011;63484;52.054;8.518;2022-11-02T06:33:40;6.55;;;1.55;;
65715;SDS011;63484;52.054;8.518;2022-11-02T06:38:41;10.85;;;1.40;;
65715;SDS011;63484;52.054;8.518;2022-11-02T06:43:41;10.55;;;1.40;;
65715;SDS011;63484;52.054;8.518;2022-11-02T06:48:41;11.75;;;1.48;;
65715;SDS011;63484;52.054;8.518;2022-11-02T06:53:42;12.20;;;1.30;;
65715;SDS011;63484;52.054;8.518;2022-11-02T06:58:42;8.80;;;1.58;;
65715;SDS011;63484;52.054;8.518;2022-11-02T07:03:43;6.80;;;1.40;;
65715;SDS011;63484;52.054;8.518;2022-11-02T07:08:43;11.90;;;1.80;;
65715;SDS011;63484;52.054;8.518;2022-11-02T07:13:43;10.00;;;1.48;;
65715;SDS011;63484;52.054;8.518;2022-11-02T07:18:44;7.22;;;1.40;;
65715;SDS011;63484;52.054;8.518;2022-11-02T07:23:44;6.85;;;1.52;;
65715;SDS011;63484;52.054;8.518;2022-11-02T07:28:45;5.85;;;1.35;;
65715;SDS011;63484;52.054;8.518;2022-11-02T07:33:46;12.85;;;1.58;;
65715;SDS011;63484;52.054;8.518;2022-11-02T07:38:46;9.70;;;1.50;;
65715;SDS011;63484;52.054;8.518;2022-11-02T07:43:46;8.00;;;1.52;;
65715;SDS011;63484;52.054;8.518;2022-11-02T07:49:05;12.07;;;1.67;;
65715;SDS011;63484;52.054;8.518;2022-11-02T07:54:06;8.65;;;1.60;;
65715;SDS011;63484;52.054;8.518;2022-11-02T07:59:08;4.80;;;1.27;;
65715;SDS011;63484;52.054;8.518;2022-11-02T08:04:09;7.70;;;2.03;;
65715;SDS011;63484;52.054;8.518;2022-11-02T08:09:09;8.13;;;1.92;;
65715;SDS011;63484;52.054;8.518;2022-11-02T08:14:10;7.50;;;1.30;;
65715;SDS011;63484;52.054;8.518;2022-11-02T08:19:10;6.28;;;1.38;;
65715;SDS011;63484;52.054;8.518;2022-11-02T08:24:10;10.77;;;1.80;;
65715;SDS011;63484;52.054;8.518;2022-11-02T08:29:11;10.27;;;1.30;;
65715;SDS011;63484;52.054;8.518;2022-11-02T08:34:11;10.68;;;1.52;;
65715;SDS011;63484;52.054;8.518;2022-11-02T08:39:12;8.68;;;1.52;;
65715;SDS011;63484;52.054;8.518;2022-11-02T08:44:12;8.48;;;1.42;;
65715;SDS011;63484;52.054;8.518;2022-11-02T08:49:12;8.07;;;1.27;;
65715;SDS011;63484;52.054;8.518;2022-11-02T08:54:13;15.98;;;1.48;;
65715;SDS011;63484;52.054;8.518;2022-11-02T08:59:13;7.45;;;1.20;;
65715;SDS011;63484;52.054;8.518;2022-11-02T09:04:14;8.75;;;1.60;;
65715;SDS011;63484;52.054;8.518;2022-11-02T09:09:14;10.00;;;1.17;;
65715;SDS011;63484;52.054;8.518;2022-11-02T09:14:14;9.57;;;1.35;;
65715;SDS011;63484;52.054;8.518;2022-11-02T09:19:15;10.52;;;1.52;;
65715;SDS011;63484;52.054;8.518;2022-11-02T09:24:15;12.88;;;1.40;;
65715;SDS011;63484;52.054;8.518;2022-11-02T09:29:15;7.00;;;1.20;;
65715;SDS011;63484;52.054;8.518;2022-11-02T09:34:16;8.60;;;1.40;;
65715;SDS011;63484;52.054;8.518;2022-11-02T09:39:16;10.05;;;1.10;;
65715;SDS011;63484;52.054;8.518;2022-11-02T09:44:20;6.85;;;1.10;;
65715;SDS011;63484;52.054;8.518;2022-11-02T09:49:27;7.07;;;1.40;;
65715;SDS011;63484;52.054;8.518;2022-11-02T09:54:32;6.25;;;1.48;;
65715;SDS011;63484;52.054;8.518;2022-11-02T09:59:38;8.40;;;1.00;;
65715;SDS011;63484;52.054;8.518;2022-11-02T10:15:06;8.45;;;1.20;;
65715;SDS011;63484;52.054;8.518;2022-11-02T10:20:33;8.10;;;1.20;;
65715;SDS011;63484;52.054;8.518;2022-11-02T10:25:39;8.82;;;1.40;;
65715;SDS011;63484;52.054;8.518;2022-11-02T10:30:41;9.65;;;1.20;;
65715;SDS011;63484;52.054;8.518;2022-11-02T10:41:04;5.78;;;0.95;;
65715;SDS011;63484;52.054;8.518;2022-11-02T10:46:18;9.82;;;1.20;;
65715;SDS011;63484;52.054;8.518;2022-11-02T10:51:29;9.80;;;1.42;;
65715;SDS011;63484;52.054;8.518;2022-11-02T10:56:30;8.05;;;1.35;;
65715;SDS011;63484;52.054;8.518;2022-11-02T11:01:32;8.25;;;1.17;;
65715;SDS011;63484;52.054;8.518;2022-11-02T11:06:39;11.32;;;1.08;;
65715;SDS011;63484;52.054;8.518;2022-11-02T11:11:45;4.03;;;0.93;;
65715;SDS011;63484;52.054;8.518;2022-11-02T11:16:53;10.00;;;1.05;;
65715;SDS011;63484;52.054;8.518;2022-11-02T11:21:55;6.53;;;1.30;;
65715;SDS011;63484;52.054;8.518;2022-11-02T11:32:13;9.57;;;1.35;;
65715;SDS011;63484;52.054;8.518;2022-11-02T11:37:18;5.00;;;1.00;;
65715;SDS011;63484;52.054;8.518;2022-11-02T11:42:19;9.63;;;1.30;;
65715;SDS011;63484;52.054;8.518;2022-11-02T11:47:26;7.22;;;1.15;;
65715;SDS011;63484;52.054;8.518;2022-11-02T11:52:30;10.02;;;1.55;;
65715;SDS011;63484;52.054;8.518;2022-11-02T11:57:35;7.30;;;1.13;;
65715;SDS011;63484;52.054;8.518;2022-11-02T12:02:35;5.60;;;0.82;;
65715;SDS011;63484;52.054;8.518;2022-11-02T12:24:32;5.90;;;0.98;;
65715;SDS011;63484;52.054;8.518;2022-11-02T12:30:00;5.65;;;1.20;;
65715;SDS011;63484;52.054;8.518;2022-11-02T12:45:45;5.70;;;0.85;;
65715;SDS011;63484;52.054;8.518;2022-11-02T12:51:12;8.90;;;1.88;;
65715;SDS011;63484;52.054;8.518;2022-11-02T12:56:20;9.35;;;1.65;;
65715;SDS011;63484;52.054;8.518;2022-11-02T13:01:36;6.85;;;0.95;;
65715;SDS011;63484;52.054;8.518;2022-11-02T13:06:43;6.90;;;1.00;;
65715;SDS011;63484;52.054;8.518;2022-11-02T13:11:52;5.50;;;1.10;;
65715;SDS011;63484;52.054;8.518;2022-11-02T13:17:02;8.65;;;1.08;;
65715;SDS011;63484;52.054;8.518;2022-11-02T13:22:11;10.25;;;1.27;;
65715;SDS011;63484;52.054;8.518;2022-11-02T13:27:19;8.07;;;1.10;;
65715;SDS011;63484;52.054;8.518;2022-11-02T13:32:31;4.00;;;0.88;;
65715;SDS011;63484;52.054;8.518;2022-11-02T13:37:42;6.72;;;1.17;;
65715;SDS011;63484;52.054;8.518;2022-11-02T13:53:49;7.60;;;1.38;;
65715;SDS011;63484;52.054;8.518;2022-11-02T13:59:01;5.35;;;0.70;;
65715;SDS011;63484;52.054;8.518;2022-11-02T14:04:08;6.40;;;1.35;;
65715;SDS011;63484;52.054;8.518;2022-11-02T14:09:19;5.07;;;0.93;;
65715;SDS011;63484;52.054;8.518;2022-11-02T14:14:23;6.85;;;1.02;;
65715;SDS011;63484;52.054;8.518;2022-11-02T14:19:29;6.70;;;1.30;;
65715;SDS011;63484;52.054;8.518;2022-11-02T14:34:38;4.20;;;1.03;;
65715;SDS011;63484;52.054;8.518;2022-11-02T15:00:34;6.18;;;1.00;;
65715;SDS011;63484;52.054;8.518;2022-11-02T15:05:38;7.15;;;1.40;;
65715;SDS011;63484;52.054;8.518;2022-11-02T15:10:40;13.10;;;1.25;;
65715;SDS011;63484;52.054;8.518;2022-11-02T15:15:43;9.50;;;1.40;;
65715;SDS011;63484;52.054;8.518;2022-11-02T15:20:44;5.90;;;1.02;;
65715;SDS011;63484;52.054;8.518;2022-11-02T15:25:46;9.68;;;1.42;;
65715;SDS011;63484;52.054;8.518;2022-11-02T15:30:51;5.38;;;1.33;;
65715;SDS011;63484;52.054;8.518;2022-11-02T15:35:56;8.35;;;1.50;;
65715;SDS011;63484;52.054;8.518;2022-11-02T15:46:19;10.05;;;1.52;;
65715;SDS011;63484;52.054;8.518;2022-11-02T15:51:44;7.63;;;1.35;;
65715;SDS011;63484;52.054;8.518;2022-11-02T15:56:53;6.55;;;1.52;;
65715;SDS011;63484;52.054;8.518;2022-11-02T16:02:17;10.07;;;1.67;;
65715;SDS011;63484;52.054;8.518;2022-11-02T16:07:26;6.07;;;1.40;;
65715;SDS011;63484;52.054;8.518;2022-11-02T16:12:28;6.80;;;1.50;;
65715;SDS011;63484;52.054;8.518;2022-11-02T16:17:30;9.52;;;1.65;;
65715;SDS011;63484;52.054;8.518;2022-11-02T16:22:31;7.35;;;1.10;;
65715;SDS011;63484;52.054;8.518;2022-11-02T16:27:34;8.77;;;1.48;;
65715;SDS011;63484;52.054;8.518;2022-11-02T16:32:36;4.93;;;1.17;;
65715;SDS011;63484;52.054;8.518;2022-11-02T16:37:36;7.30;;;1.52;;
65715;SDS011;63484;52.054;8.518;2022-11-02T16:42:37;9.25;;;1.42;;
65715;SDS011;63484;52.054;8.518;2022-11-02T16:47:38;5.60;;;1.40;;
65715;SDS011;63484;52.054;8.518;2022-11-02T16:52:40;7.23;;;1.40;;
65715;SDS011;63484;52.054;8.518;2022-11-02T16:57:42;10.90;;;1.70;;
65715;SDS011;63484;52.054;8.518;2022-11-02T17:02:44;6.88;;;1.48;;
65715;SDS011;63484;52.054;8.518;2022-11-02T17:07:56;5.25;;;1.13;;
65715;SDS011;63484;52.054;8.518;2022-11-02T17:13:04;6.78;;;1.50;;
65715;SDS011;63484;52.054;8.518;2022-11-02T17:28:46;12.90;;;1.57;;
65715;SDS011;63484;52.054;8.518;2022-11-02T17:33:51;9.68;;;1.70;;
65715;SDS011;63484;52.054;8.518;2022-11-02T17:38:53;9.65;;;2.17;;
65715;SDS011;63484;52.054;8.518;2022-11-02T17:44:12;7.15;;;1.60;;
65715;SDS011;63484;52.054;8.518;2022-11-02T17:49:15;8.45;;;1.50;;
65715;SDS011;63484;52.054;8.518;2022-11-02T17:54:16;7.68;;;2.10;;
65715;SDS011;63484;52.054;8.518;2022-11-02T17:59:17;7.60;;;1.58;;
65715;SDS011;63484;52.054;8.518;2022-11-02T18:04:17;7.43;;;1.38;;
65715;SDS011;63484;52.054;8.518;2022-11-02T18:09:18;11.38;;;1.92;;
65715;SDS011;63484;52.054;8.518;2022-11-02T18:14:18;14.48;;;1.73;;
65715;SDS011;63484;52.054;8.518;2022-11-02T18:19:19;7.18;;;1.60;;
65715;SDS011;63484;52.054;8.518;2022-11-02T18:24:19;8.50;;;2.60;;
65715;SDS011;63484;52.054;8.518;2022-11-02T18:29:19;12.68;;;3.13;;
65715;SDS011;63484;52.054;8.518;2022-11-02T18:34:20;20.70;;;3.63;;
65715;SDS011;63484;52.054;8.518;2022-11-02T18:39:20;10.27;;;2.10;;
65715;SDS011;63484;52.054;8.518;2022-11-02T18:44:21;8.32;;;2.78;;
65715;SDS011;63484;52.054;8.518;2022-11-02T18:49:21;11.48;;;4.32;;
65715;SDS011;63484;52.054;8.518;2022-11-02T18:54:21;12.95;;;3.60;;
65715;SDS011;63484;52.054;8.518;2022-11-02T18:59:22;18.42;;;7.78;;
65715;SDS011;63484;52.054;8.518;2022-11-02T19:04:22;17.77;;;5.45;;
65715;SDS011;63484;52.054;8.518;2022-11-02T19:09:23;20.90;;;6.80;;
65715;SDS011;63484;52.054;8.518;2022-11-02T19:14:59;11.05;;;3.00;;
65715;SDS011;63484;52.054;8.518;2022-11-02T19:19:53;9.02;;;2.20;;
65715;SDS011;63484;52.054;8.518;2022-11-02T19:24:53;12.35;;;2.13;;
65715;SDS011;63484;52.054;8.518;2022-11-02T19:29:54;14.35;;;3.45;;
65715;SDS011;63484;52.054;8.518;2022-11-02T19:34:54;9.88;;;1.92;;
65715;SDS011;63484;52.054;8.518;2022-11-02T19:39:54;10.23;;;2.25;;
65715;SDS011;63484;52.054;8.518;2022-11-02T19:44:55;8.25;;;2.20;;
65715;SDS011;63484;52.054;8.518;2022-11-02T19:49:55;9.77;;;1.92;;
65715;SDS011;63484;52.054;8.518;2022-11-02T19:54:55;11.77;;;2.72;;
65715;SDS011;63484;52.054;8.518;2022-11-02T19:59:55;14.05;;;2.47;;
65715;SDS011;63484;52.054;8.518;2022-11-02T20:04:56;16.60;;;2.05;;
65715;SDS011;63484;52.054;8.518;2022-11-02T20:09:56;11.00;;;1.63;;
65715;SDS011;63484;52.054;8.518;2022-11-02T20:14:56;7.65;;;1.52;;
65715;SDS011;63484;52.054;8.518;2022-11-02T20:19:57;11.38;;;1.95;;
65715;SDS011;63484;52.054;8.518;2022-11-02T20:24:57;7.95;;;1.77;;
65715;SDS011;63484;52.054;8.518;2022-11-02T20:29:57;10.27;;;2.38;;
65715;SDS011;63484;52.054;8.518;2022-11-02T20:34:58;6.85;;;1.85;;
65715;SDS011;63484;52.054;8.518;2022-11-02T20:39:58;13.40;;;1.60;;
65715;SDS011;63484;52.054;8.518;2022-11-02T20:44:59;8.32;;;1.60;;
65715;SDS011;63484;52.054;8.518;2022-11-02T20:49:59;6.30;;;1.70;;
65715;SDS011;63484;52.054;8.518;2022-11-02T20:54:59;8.20;;;1.48;;
65715;SDS011;63484;52.054;8.518;2022-11-02T21:00:00;6.88;;;1.65;;
65715;SDS011;63484;52.054;8.518;2022-11-02T21:05:00;7.97;;;2.13;;
65715;SDS011;63484;52.054;8.518;2022-11-02T21:10:00;7.05;;;2.05;;
65715;SDS011;63484;52.054;8.518;2022-11-02T21:15:01;12.30;;;1.55;;
65715;SDS011;63484;52.054;8.518;2022-11-02T21:20:02;10.40;;;2.85;;
65715;SDS011;63484;52.054;8.518;2022-11-02T21:25:03;6.68;;;2.38;;
65715;SDS011;63484;52.054;8.518;2022-11-02T21:30:04;10.07;;;1.92;;
65715;SDS011;63484;52.054;8.518;2022-11-02T21:35:05;6.97;;;1.92;;
65715;SDS011;63484;52.054;8.518;2022-11-02T21:40:06;6.88;;;2.67;;
65715;SDS011;63484;52.054;8.518;2022-11-02T21:45:07;14.00;;;2.58;;
65715;SDS011;63484;52.054;8.518;2022-11-02T21:50:07;10.57;;;2.45;;
65715;SDS011;63484;52.054;8.518;2022-11-02T21:55:08;7.60;;;2.05;;
65715;SDS011;63484;52.054;8.518;2022-11-02T22:00:09;10.07;;;1.73;;
65715;SDS011;63484;52.054;8.518;2022-11-02T22:05:12;10.82;;;1.40;;
65715;SDS011;63484;52.054;8.518;2022-11-02T22:10:33;7.55;;;2.17;;
65715;SDS011;63484;52.054;8.518;2022-11-02T22:15:33;9.25;;;1.70;;
65715;SDS011;63484;52.054;8.518;2022-11-02T22:20:33;7.80;;;1.30;;
65715;SDS011;63484;52.054;8.518;2022-11-02T22:25:34;8.32;;;1.40;;
65715;SDS011;63484;52.054;8.518;2022-11-02T22:30:35;8.48;;;1.67;;
65715;SDS011;63484;52.054;8.518;2022-11-02T22:35:36;8.00;;;1.77;;
65715;SDS011;63484;52.054;8.518;2022-11-02T22:40:36;10.07;;;1.20;;
65715;SDS011;63484;52.054;8.518;2022-11-02T22:45:37;8.60;;;1.40;;
65715;SDS011;63484;52.054;8.518;2022-11-02T22:50:37;7.85;;;1.65;;
65715;SDS011;63484;52.054;8.518;2022-11-02T22:55:37;10.77;;;1.70;;
65715;SDS011;63484;52.054;8.518;2022-11-02T23:00:38;6.32;;;1.80;;
65715;SDS011;63484;52.054;8.518;2022-11-02T23:05:38;11.50;;;1.55;;
65715;SDS011;63484;52.054;8.518;2022-11-02T23:10:39;9.75;;;1.50;;
65715;SDS011;63484;52.054;8.518;2022-11-02T23:16:04;11.05;;;1.48;;
65715;SDS011;63484;52.054;8.518;2022-11-02T23:21:24;9.63;;;1.42;;
65715;SDS011;63484;52.054;8.518;2022-11-02T23:26:24;8.45;;;1.38;;
65715;SDS011;63484;52.054;8.518;2022-11-02T23:31:24;6.93;;;1.30;;
65715;SDS011;63484;52.054;8.518;2022-11-02T23:36:43;5.22;;;1.40;;
65715;SDS011;63484;52.054;8.518;2022-11-02T23:41:44;7.60;;;1.80;;
65715;SDS011;63484;52.054;8.518;2022-11-02T23:46:45;5.78;;;1.42;;
65715;SDS011;63484;52.054;8.518;2022-11-02T23:51:47;11.73;;;1.70;;
65715;SDS011;63484;52.054;8.518;2022-11-02T23:57:06;5.53;;;1.30;;
